Time;durP1;ratioP1;P1;durP2;ratioP2;P2;SDS_P1;SDS_P2;PMS_P1;PMS_P2;Temp;Humidity;BMP_temperature;BMP_pressure;BME280_temperature;BME280_humidity;BME280_pressure;Samples;Min_cycle;Max_cycle;Signal;HPM_P1;HPM_P2
2023/09/10 00:01:04;;;;;;;4.93;3.13;;;;;;;19.57;57.30;98840.88;5041738;28;20045;-94
2023/09/10 00:03:32;;;;;;;7.32;3.70;;;;;;;19.56;57.89;98818.44;5041446;28;20041;-95
2023/09/10 00:05:59;;;;;;;7.15;3.72;;;;;;;19.75;58.00;98828.94;5042668;28;20045;-95
2023/09/10 00:08:25;;;;;;;4.75;3.40;;;;;;;19.71;57.59;98819.28;5045444;28;20041;-94
2023/09/10 00:10:51;;;;;;;6.35;3.55;;;;;;;19.67;57.32;98788.94;5042439;28;20056;-95
2023/09/10 00:13:17;;;;;;;4.90;3.47;;;;;;;19.53;56.55;98755.72;5042317;28;20139;-94
2023/09/10 00:15:43;;;;;;;6.70;3.53;;;;;;;19.73;57.02;98790.38;5042955;28;20052;-94
2023/09/10 00:18:11;;;;;;;6.40;3.22;;;;;;;19.69;56.10;98773.53;5041843;28;20053;-94
2023/09/10 00:20:37;;;;;;;5.28;3.42;;;;;;;19.96;56.86;98821.28;5041962;28;20041;-94
2023/09/10 00:23:03;;;;;;;6.68;3.78;;;;;;;20.18;54.82;98834.25;5042411;28;20090;-95
2023/09/10 00:25:29;;;;;;;3.92;2.92;;;;;;;20.24;55.26;98814.97;5042363;28;20072;-94
2023/09/10 00:27:56;;;;;;;7.47;3.97;;;;;;;20.04;56.52;98797.38;5041576;28;20079;-95
2023/09/10 00:30:22;;;;;;;6.25;3.72;;;;;;;20.03;57.13;98806.41;5042441;28;20045;-94
2023/09/10 00:32:48;;;;;;;8.32;3.47;;;;;;;20.03;57.59;98808.25;5041145;28;20035;-96
2023/09/10 00:35:15;;;;;;;6.90;4.30;;;;;;;20.13;58.93;98803.16;5041177;28;20037;-94
2023/09/10 00:37:41;;;;;;;6.47;3.72;;;;;;;20.24;58.95;98836.56;5044130;28;20052;-93
2023/09/10 00:40:08;;;;;;;6.22;4.13;;;;;;;19.93;60.08;98834.09;5039334;28;20053;-95
2023/09/10 00:42:35;;;;;;;6.55;3.80;;;;;;;19.58;60.54;98797.63;5057154;28;20077;-95
2023/09/10 00:45:03;;;;;;;8.40;3.60;;;;;;;19.55;60.54;98788.84;5040792;28;20045;-95
2023/09/10 00:47:30;;;;;;;5.93;4.05;;;;;;;19.45;61.05;98796.63;5040277;28;20041;-94
2023/09/10 00:49:56;;;;;;;6.20;4.28;;;;;;;19.69;60.28;98835.59;5058075;28;20047;-95
2023/09/10 00:52:25;;;;;;;5.95;3.78;;;;;;;19.62;60.59;98825.25;5041648;28;20140;-94
2023/09/10 00:54:51;;;;;;;8.23;4.15;;;;;;;19.69;61.32;98840.06;5041204;28;20532;-94
2023/09/10 00:57:17;;;;;;;10.50;4.47;;;;;;;19.66;60.96;98827.66;5041020;28;20045;-94
2023/09/10 00:59:44;;;;;;;6.80;3.70;;;;;;;19.61;60.88;98816.28;5057449;28;20041;-94
2023/09/10 01:02:13;;;;;;;8.18;4.25;;;;;;;19.81;61.26;98854.66;5056778;28;20041;-93
2023/09/10 01:04:40;;;;;;;6.45;4.07;;;;;;;19.42;61.46;98800.41;5039352;28;20185;-94
2023/09/10 01:07:07;;;;;;;6.05;4.00;;;;;;;19.50;61.61;98830.47;5056150;28;20048;-94
2023/09/10 01:09:34;;;;;;;7.18;5.35;;;;;;;19.35;62.38;98822.47;5042692;28;20375;-94
2023/09/10 01:12:09;;;;;;;7.50;4.18;;;;;;;18.73;64.10;98782.19;5056172;28;20056;-94
2023/09/10 01:14:41;;;;;;;8.00;4.50;;;;;;;19.06;64.04;98817.91;5056324;28;20049;-95
2023/09/10 01:17:14;;;;;;;6.05;3.95;;;;;;;18.94;64.24;98812.41;5039571;28;20076;-95
2023/09/10 01:20:14;;;;;;;9.07;4.75;;;;;;;18.76;64.66;98793.66;5056027;28;20053;-94
2023/09/10 01:22:48;;;;;;;6.53;5.38;;;;;;;18.95;64.93;98828.44;5056412;28;20415;-94
2023/09/10 01:25:16;;;;;;;9.98;5.03;;;;;;;18.68;65.30;98807.56;5055552;28;20057;-94
2023/09/10 01:27:43;;;;;;;5.80;3.85;;;;;;;18.94;64.63;98829.44;5039460;28;20071;-93
2023/09/10 01:30:10;;;;;;;5.97;4.63;;;;;;;18.83;64.06;98797.72;5055636;28;20045;-96
2023/09/10 01:32:41;;;;;;;6.53;4.38;;;;;;;19.03;64.18;98842.34;5055480;28;20498;-93
2023/09/10 01:35:17;;;;;;;7.60;4.38;;;;;;;18.90;64.45;98818.94;5055444;28;20025;-95
2023/09/10 01:37:50;;;;;;;9.20;4.40;;;;;;;19.06;65.22;98847.56;5038783;28;20562;-95
2023/09/10 01:40:26;;;;;;;7.22;4.40;;;;;;;18.96;64.89;98843.66;5059279;28;20096;-94
2023/09/10 01:42:52;;;;;;;6.68;4.00;;;;;;;18.84;65.43;98837.19;5055382;28;20032;-94
2023/09/10 01:45:20;;;;;;;6.57;4.75;;;;;;;18.45;66.25;98813.44;5054997;28;20045;-94
2023/09/10 01:47:46;;;;;;;7.35;4.55;;;;;;;18.32;66.23;98807.03;5037864;28;20076;-94
2023/09/10 01:50:12;;;;;;;7.28;4.50;;;;;;;18.20;67.57;98820.25;5037939;28;20475;-94
2023/09/10 01:52:38;;;;;;;6.70;4.25;;;;;;;17.83;68.21;98770.38;5038495;28;20053;-95
2023/09/10 01:55:05;;;;;;;7.82;4.03;;;;;;;17.79;68.01;98766.09;5038490;28;20503;-95
2023/09/10 01:57:32;;;;;;;6.82;4.20;;;;;;;17.94;67.58;98789.47;5038760;28;20081;-94
2023/09/10 01:59:58;;;;;;;7.18;3.90;;;;;;;17.92;67.08;98807.50;5038604;28;20045;-95
2023/09/10 02:02:24;;;;;;;6.78;3.58;;;;;;;18.18;65.26;98838.31;5038477;28;20132;-94
2023/09/10 02:04:50;;;;;;;5.70;3.95;;;;;;;17.85;65.21;98776.53;5038768;28;20042;-94
2023/09/10 02:07:16;;;;;;;7.07;4.03;;;;;;;18.21;65.66;98805.84;5038501;28;20041;-94
2023/09/10 02:09:42;;;;;;;8.98;4.38;;;;;;;18.56;65.94;98845.13;5042250;28;20045;-94
2023/09/10 02:12:08;;;;;;;7.50;4.60;;;;;;;18.50;65.52;98824.84;5038066;28;20037;-95
2023/09/10 02:14:35;;;;;;;9.07;4.32;;;;;;;18.33;66.66;98814.19;5038268;28;20037;-93
2023/09/10 02:17:02;;;;;;;9.65;5.00;;;;;;;18.44;66.67;98855.66;5038041;28;20053;-94
2023/09/10 02:19:28;;;;;;;7.13;5.60;;;;;;;18.17;66.54;98804.31;5038287;28;20440;-94
2023/09/10 02:21:55;;;;;;;6.45;3.78;;;;;;;17.88;66.70;98788.94;5038066;28;20033;-94
2023/09/10 02:24:21;;;;;;;6.07;3.95;;;;;;;17.92;67.18;98822.78;5037590;28;20052;-94
2023/09/10 02:26:46;;;;;;;7.32;3.83;;;;;;;17.72;65.49;98824.75;5037658;28;20075;-94
2023/09/10 02:29:12;;;;;;;7.43;3.67;;;;;;;17.37;66.05;98806.03;5037139;28;20045;-94
2023/09/10 02:31:40;;;;;;;5.30;4.70;;;;;;;17.64;65.64;98825.16;5037622;28;20470;-94
2023/09/10 02:34:05;;;;;;;6.53;4.20;;;;;;;17.64;65.59;98824.28;5037924;28;20053;-96
2023/09/10 02:36:31;;;;;;;5.07;3.67;;;;;;;17.85;65.41;98844.66;5038108;28;20088;-95
2023/09/10 02:38:57;;;;;;;9.68;3.70;;;;;;;17.88;65.60;98849.00;5037719;28;20136;-94
2023/09/10 02:41:23;;;;;;;5.97;3.85;;;;;;;17.81;65.96;98834.13;5038038;28;20045;-93
2023/09/10 02:43:49;;;;;;;6.03;3.60;;;;;;;17.89;65.81;98850.75;5038015;28;20041;-94
2023/09/10 02:46:15;;;;;;;7.18;4.20;;;;;;;17.32;66.51;98810.78;5038287;28;20045;-95
2023/09/10 02:48:42;;;;;;;7.15;3.85;;;;;;;17.58;67.47;98865.81;5038342;28;20587;-94
2023/09/10 02:51:08;;;;;;;7.10;4.40;;;;;;;17.10;67.76;98799.44;5037879;28;20095;-95
2023/09/10 02:53:34;;;;;;;6.95;4.00;;;;;;;17.52;66.68;98838.41;5038551;28;20045;-94
2023/09/10 02:56:00;;;;;;;7.10;4.38;;;;;;;17.56;66.81;98829.22;5038445;28;20047;-94
2023/09/10 02:58:26;;;;;;;6.55;3.97;;;;;;;17.63;66.76;98823.44;5037765;28;20049;-94
2023/09/10 03:00:52;;;;;;;6.43;4.65;;;;;;;17.77;66.53;98863.00;5037872;28;20079;-93
2023/09/10 03:03:19;;;;;;;6.28;4.05;;;;;;;17.33;66.61;98796.41;5037898;28;20044;-94
2023/09/10 03:05:46;;;;;;;5.85;4.35;;;;;;;17.40;66.63;98808.53;5037902;28;20112;-94
2023/09/10 03:08:12;;;;;;;6.70;4.35;;;;;;;17.50;66.25;98814.31;5040702;28;20087;-95
2023/09/10 03:10:38;;;;;;;5.97;4.13;;;;;;;17.49;66.46;98806.31;5036472;28;20048;-96
2023/09/10 03:13:04;;;;;;;7.95;4.40;;;;;;;17.33;67.25;98796.41;5037771;28;20482;-95
2023/09/10 03:15:30;;;;;;;7.07;5.35;;;;;;;17.59;67.74;98837.13;5037670;28;20467;-94
2023/09/10 03:17:56;;;;;;;6.45;4.10;;;;;;;17.48;68.89;98815.31;5034176;28;20050;-94
2023/09/10 03:20:22;;;;;;;7.60;5.47;;;;;;;17.56;69.46;98846.22;5034430;28;20453;-94
2023/09/10 03:22:51;;;;;;;6.60;4.80;;;;;;;17.51;69.39;98832.16;5034344;28;20052;-94
2023/09/10 03:25:17;;;;;;;7.28;5.03;;;;;;;17.66;70.13;98855.50;5034201;28;20065;-95
2023/09/10 03:27:43;;;;;;;8.30;5.22;;;;;;;17.13;69.98;98781.34;5034054;28;20080;-94
2023/09/10 03:30:09;;;;;;;7.13;4.72;;;;;;;17.17;70.47;98799.03;5034293;28;20041;-94
2023/09/10 03:32:35;;;;;;;7.13;4.70;;;;;;;17.08;70.83;98769.97;5034813;28;20048;-94
2023/09/10 03:35:03;;;;;;;10.02;4.80;;;;;;;17.18;70.42;98781.97;5034185;28;20045;-94
2023/09/10 03:37:29;;;;;;;8.73;5.00;;;;;;;17.24;71.58;98837.22;5038450;28;20052;-95
2023/09/10 03:39:56;;;;;;;8.00;4.78;;;;;;;17.04;72.09;98811.38;5036211;28;20049;-94
2023/09/10 03:42:22;;;;;;;7.93;5.03;;;;;;;17.09;72.65;98857.69;5054532;28;20089;-95
2023/09/10 03:44:48;;;;;;;7.60;4.85;;;;;;;16.21;74.42;98799.47;5054089;28;20025;-94
2023/09/10 03:47:14;;;;;;;9.95;4.97;;;;;;;16.52;75.79;98847.13;5054023;28;20154;-96
2023/09/10 03:49:39;;;;;;;8.23;5.05;;;;;;;16.45;75.57;98840.31;5053149;28;20080;-94
2023/09/10 03:52:14;;;;;;;7.72;4.95;;;;;;;16.51;74.89;98845.41;5040876;28;20104;-94
2023/09/10 03:54:40;;;;;;;8.13;5.60;;;;;;;16.52;75.22;98838.19;5037758;28;20424;-94
2023/09/10 03:57:07;;;;;;;8.48;5.15;;;;;;;16.50;75.50;98832.91;5037529;28;20044;-94
2023/09/10 03:59:33;;;;;;;7.95;5.10;;;;;;;16.30;75.38;98803.53;5037877;28;20073;-94
2023/09/10 04:01:59;;;;;;;8.63;4.80;;;;;;;16.57;76.17;98855.84;5037596;28;20467;-94
2023/09/10 04:04:25;;;;;;;7.65;5.40;;;;;;;16.29;76.77;98815.22;5037269;28;20049;-94
2023/09/10 04:06:51;;;;;;;7.10;4.70;;;;;;;16.32;77.51;98823.09;5037057;28;20046;-93
2023/09/10 04:09:17;;;;;;;9.45;5.85;;;;;;;15.65;80.79;98787.84;5040038;28;20065;-93
2023/09/10 04:11:43;;;;;;;11.40;5.85;;;;;;;15.87;80.74;98810.97;5037286;28;20050;-93
2023/09/10 04:14:10;;;;;;;8.73;5.20;;;;;;;16.07;80.78;98834.16;5037008;28;20136;-95
2023/09/10 04:16:36;;;;;;;9.65;5.32;;;;;;;15.97;80.57;98807.78;5036986;28;20499;-94
2023/09/10 04:19:02;;;;;;;8.85;5.85;;;;;;;15.78;81.77;98813.16;5036796;28;20061;-94
2023/09/10 04:21:28;;;;;;;7.68;5.65;;;;;;;15.82;81.20;98809.38;5037131;28;20522;-95
2023/09/10 04:23:54;;;;;;;8.18;5.43;;;;;;;16.13;80.15;98844.59;5036749;28;20038;-93
2023/09/10 04:26:20;;;;;;;6.38;4.45;;;;;;;16.03;79.98;98820.03;5037168;28;20025;-93
2023/09/10 04:28:46;;;;;;;6.25;4.57;;;;;;;16.23;78.81;98838.69;5036685;28;20091;-94
2023/09/10 04:31:15;;;;;;;7.72;4.63;;;;;;;16.04;79.00;98812.84;5053295;28;20045;-94
2023/09/10 04:33:41;;;;;;;8.80;5.20;;;;;;;16.25;79.17;98865.47;5036256;28;20144;-94
2023/09/10 04:36:07;;;;;;;7.00;4.85;;;;;;;16.00;79.48;98855.94;5037430;28;20141;-94
2023/09/10 04:38:33;;;;;;;8.95;5.07;;;;;;;15.81;79.69;98837.16;5053398;28;20096;-93
2023/09/10 04:40:59;;;;;;;7.03;5.10;;;;;;;16.02;79.70;98858.53;5055566;28;20041;-94
2023/09/10 04:43:24;;;;;;;9.48;5.18;;;;;;;15.90;79.62;98846.56;5053443;28;20038;-94
2023/09/10 04:45:50;;;;;;;7.40;5.13;;;;;;;16.03;80.37;98860.28;5054013;28;20474;-94
2023/09/10 04:48:18;;;;;;;6.75;4.60;;;;;;;15.92;79.99;98835.78;5036300;28;20577;-94
2023/09/10 04:50:44;;;;;;;8.13;5.28;;;;;;;15.71;80.27;98806.34;5053539;28;20050;-93
2023/09/10 04:53:10;;;;;;;8.27;5.40;;;;;;;15.80;81.55;98848.81;5053082;28;20081;-94
2023/09/10 04:55:36;;;;;;;7.28;4.93;;;;;;;15.44;83.67;98834.41;5053005;28;20037;-93
2023/09/10 04:58:02;;;;;;;7.85;5.05;;;;;;;15.89;83.35;98886.88;5052908;28;20041;-94
2023/09/10 05:00:28;;;;;;;9.57;5.18;;;;;;;16.06;82.01;98886.94;5052798;28;20046;-94
2023/09/10 05:02:54;;;;;;;8.93;5.38;;;;;;;15.68;85.30;98875.28;5036148;28;20140;-93
2023/09/10 05:05:21;;;;;;;7.80;5.57;;;;;;;15.46;84.77;98827.16;5036263;28;20063;-93
2023/09/10 05:07:47;;;;;;;10.55;6.05;;;;;;;15.55;85.27;98824.94;5036068;28;20077;-93
2023/09/10 05:10:13;;;;;;;9.68;5.90;;;;;;;15.83;84.20;98850.50;5052638;28;20037;-94
2023/09/10 05:12:39;;;;;;;7.95;5.47;;;;;;;16.00;84.40;98877.38;5038238;28;20048;-94
2023/09/10 05:15:07;;;;;;;9.88;5.63;;;;;;;15.99;84.12;98874.78;5052429;28;20140;-94
2023/09/10 05:17:33;;;;;;;7.43;5.30;;;;;;;15.98;83.98;98873.00;5054756;28;20511;-94
2023/09/10 05:19:58;;;;;;;8.38;5.22;;;;;;;16.19;84.21;98896.13;5036246;28;20104;-93
2023/09/10 05:22:26;;;;;;;7.93;5.43;;;;;;;16.21;83.59;98890.72;5035885;28;20039;-95
2023/09/10 05:24:52;;;;;;;9.15;4.90;;;;;;;16.21;83.20;98890.72;5039190;28;20108;-94
2023/09/10 05:27:17;;;;;;;9.18;5.63;;;;;;;15.94;83.10;98839.22;5035637;28;20041;-93
2023/09/10 05:29:44;;;;;;;9.48;6.68;;;;;;;16.33;83.13;98892.81;5035988;28;20368;-94
2023/09/10 05:32:10;;;;;;;9.20;5.30;;;;;;;16.25;84.37;98905.72;5035615;28;20042;-93
2023/09/10 05:34:36;;;;;;;8.63;5.07;;;;;;;16.20;83.19;98864.84;5036052;28;20095;-94
2023/09/10 05:37:02;;;;;;;7.43;4.88;;;;;;;16.53;82.52;98896.34;5035342;28;20045;-94
2023/09/10 05:39:29;;;;;;;7.93;5.68;;;;;;;16.59;82.80;98902.25;5035291;28;20037;-93
2023/09/10 05:41:55;;;;;;;8.15;6.00;;;;;;;16.62;82.20;98885.13;5035197;28;20442;-93
2023/09/10 05:44:21;;;;;;;12.38;5.88;;;;;;;16.73;82.13;98896.19;5035689;28;20038;-94
2023/09/10 05:46:49;;;;;;;7.15;4.90;;;;;;;16.59;82.03;98842.31;5035255;28;20025;-94
2023/09/10 05:49:15;;;;;;;8.25;5.57;;;;;;;16.96;81.70;98902.28;5035347;28;20128;-94
2023/09/10 05:51:41;;;;;;;8.00;6.13;;;;;;;16.95;81.12;98877.19;5034832;28;20231;-94
2023/09/10 05:54:07;;;;;;;8.43;4.82;;;;;;;17.20;79.84;98901.00;5034804;28;20144;-93
2023/09/10 05:56:34;;;;;;;8.77;5.32;;;;;;;17.12;79.03;98872.78;5035663;28;20045;-94
2023/09/10 05:59:00;;;;;;;7.22;5.68;;;;;;;17.50;78.44;98899.44;5036973;28;20091;-94
2023/09/10 06:01:26;;;;;;;7.97;5.38;;;;;;;17.35;77.52;98861.69;5034139;28;20038;-95
2023/09/10 06:03:52;;;;;;;7.82;5.07;;;;;;;17.53;76.40;98875.97;5035417;28;20095;-95
2023/09/10 06:06:18;;;;;;;7.50;5.13;;;;;;;17.61;75.84;98857.59;5035339;28;20045;-93
2023/09/10 06:08:44;;;;;;;8.25;5.22;;;;;;;17.71;75.69;98867.84;5034800;28;20064;-95
2023/09/10 06:11:10;;;;;;;8.18;4.95;;;;;;;17.72;74.21;98838.19;5034939;28;20487;-95
2023/09/10 06:13:37;;;;;;;7.53;4.85;;;;;;;17.68;73.32;98890.41;5035564;28;20096;-96
2023/09/10 06:16:03;;;;;;;7.38;5.13;;;;;;;17.76;73.58;98869.34;5068296;28;20069;-94
2023/09/10 06:18:29;;;;;;;6.72;4.55;;;;;;;18.16;72.25;98872.53;5034906;28;20057;-94
2023/09/10 06:20:55;;;;;;;6.72;4.72;;;;;;;18.17;71.14;98841.97;5051400;28;20144;-94
2023/09/10 06:23:21;;;;;;;8.90;4.95;;;;;;;18.46;70.67;98882.50;5051698;28;20042;-94
2023/09/10 06:25:47;;;;;;;8.40;4.57;;;;;;;18.50;70.34;98837.41;5035151;28;20060;-94
2023/09/10 06:28:13;;;;;;;6.57;4.40;;;;;;;18.91;69.06;98877.22;5051124;28;20038;-94
2023/09/10 06:30:40;;;;;;;8.63;5.28;;;;;;;19.02;68.63;98867.56;5034913;28;20368;-92
2023/09/10 06:33:06;;;;;;;6.57;3.92;;;;;;;19.13;67.71;98856.13;5052559;28;20048;-93
2023/09/10 06:35:34;;;;;;;7.13;4.90;;;;;;;19.16;66.43;98842.47;5036136;28;20561;-95
2023/09/10 06:38:00;;;;;;;5.75;4.15;;;;;;;19.67;65.59;98901.38;5034537;28;20076;-93
2023/09/10 06:40:25;;;;;;;6.63;4.60;;;;;;;19.22;67.34;98828.59;5034483;28;20038;-95
2023/09/10 06:42:51;;;;;;;8.75;4.78;;;;;;;19.60;67.37;98859.53;5050893;28;20054;-93
2023/09/10 06:45:17;;;;;;;9.43;5.05;;;;;;;19.69;66.04;98843.69;5034222;28;20042;-94
2023/09/10 06:47:45;;;;;;;8.85;5.60;;;;;;;19.97;65.21;98854.53;5033942;28;20128;-94
2023/09/10 06:50:10;;;;;;;7.50;6.25;;;;;;;20.05;63.71;98844.13;5051311;28;20411;-95
2023/09/10 06:52:36;;;;;;;8.82;5.20;;;;;;;20.47;63.34;98871.97;5053249;28;20136;-94
2023/09/10 06:55:03;;;;;;;7.40;5.38;;;;;;;20.82;63.01;98903.91;5038367;28;20146;-94
2023/09/10 06:57:30;;;;;;;6.53;4.97;;;;;;;20.59;62.25;98849.59;5037578;28;20061;-94
2023/09/10 06:59:57;;;;;;;8.48;5.10;;;;;;;20.48;61.57;98827.81;5033101;28;20045;-95
2023/09/10 07:02:25;;;;;;;8.10;5.30;;;;;;;20.53;61.26;98841.84;5039466;28;20038;-94
2023/09/10 07:04:52;;;;;;;7.63;5.40;;;;;;;20.96;60.59;98855.22;5059968;28;20049;-95
2023/09/10 07:07:18;;;;;;;7.85;4.63;;;;;;;21.09;59.73;98841.72;5039767;28;20022;-96
2023/09/10 07:09:44;;;;;;;8.30;4.97;;;;;;;21.28;59.97;98879.19;5053639;28;20050;-95
2023/09/10 07:12:10;;;;;;;8.85;5.18;;;;;;;21.50;59.45;98892.97;5036218;28;20041;-94
2023/09/10 07:14:36;;;;;;;7.70;4.65;;;;;;;21.39;60.18;98846.81;5038103;28;20079;-94
2023/09/10 07:17:02;;;;;;;7.32;4.90;;;;;;;21.11;59.86;98886.59;5040068;28;20072;-95
2023/09/10 07:19:28;;;;;;;7.85;5.07;;;;;;;21.13;60.17;98878.38;5041544;28;20077;-95
2023/09/10 07:21:57;;;;;;;7.60;4.85;;;;;;;21.42;59.29;98856.59;5042837;28;20044;-95
2023/09/10 07:24:23;;;;;;;8.02;5.07;;;;;;;21.88;58.72;98894.81;5059265;28;20059;-95
2023/09/10 07:26:49;;;;;;;11.95;5.40;;;;;;;21.60;59.30;98884.19;5041020;28;20041;-95
2023/09/10 07:29:16;;;;;;;7.30;5.05;;;;;;;21.96;57.99;98888.81;5041172;28;20135;-95
2023/09/10 07:31:42;;;;;;;8.45;5.22;;;;;;;22.21;57.25;98908.72;5057481;28;20139;-94
2023/09/10 07:34:09;;;;;;;7.28;5.22;;;;;;;22.44;56.74;98915.19;5057900;28;20045;-95
2023/09/10 07:36:35;;;;;;;10.20;4.70;;;;;;;22.44;56.52;98898.94;5042308;28;20048;-94
2023/09/10 07:39:03;;;;;;;6.13;4.72;;;;;;;22.10;56.57;98849.94;5048669;28;20041;-96
2023/09/10 07:41:32;;;;;;;8.52;5.20;;;;;;;22.38;56.10;98845.19;5052053;28;20033;-95
2023/09/10 07:43:59;;;;;;;7.25;4.93;;;;;;;22.67;55.56;98868.28;5053490;28;20049;-96
2023/09/10 07:46:26;;;;;;;6.30;4.20;;;;;;;23.11;54.96;98915.56;5050310;28;20049;-95
2023/09/10 07:48:52;;;;;;;8.25;5.45;;;;;;;23.01;53.85;98849.47;5053893;28;20055;-95
2023/09/10 07:51:18;;;;;;;7.93;5.18;;;;;;;23.11;53.25;98858.59;5055806;28;20048;-96
2023/09/10 07:53:51;;;;;;;8.50;4.60;;;;;;;23.31;52.94;98867.03;5052783;28;20047;-96
2023/09/10 07:56:24;;;;;;;7.90;4.70;;;;;;;23.13;53.01;98843.06;5059224;28;20067;-96
2023/09/10 07:59:02;;;;;;;7.07;4.60;;;;;;;23.11;52.56;98836.91;5059123;28;20064;-96
2023/09/10 08:01:32;;;;;;;9.20;5.15;;;;;;;23.34;52.72;98872.25;5059433;28;20040;-96
2023/09/10 08:04:04;;;;;;;5.93;4.85;;;;;;;23.46;52.44;98849.56;5058179;28;20052;-96
2023/09/10 08:06:35;;;;;;;6.85;4.88;;;;;;;23.35;52.48;98839.53;5059191;28;20056;-96
2023/09/10 08:09:13;;;;;;;7.82;4.57;;;;;;;23.84;51.64;98869.28;5058833;28;20048;-96
2023/09/10 08:11:42;;;;;;;6.32;4.82;;;;;;;24.27;51.72;98910.13;5059092;28;20033;-95
2023/09/10 08:14:10;;;;;;;8.27;5.13;;;;;;;23.07;52.63;98851.69;5058362;28;20057;-96
2023/09/10 08:16:37;;;;;;;7.13;4.63;;;;;;;23.54;52.43;98838.97;5070957;28;20113;-96
2023/09/10 08:19:03;;;;;;;9.15;4.70;;;;;;;23.89;51.38;98846.16;5048559;28;20507;-96
2023/09/10 08:21:29;;;;;;;9.27;4.72;;;;;;;24.35;51.31;98868.72;5048774;28;20052;-96
2023/09/10 08:23:56;;;;;;;7.88;5.03;;;;;;;24.52;51.43;98848.31;5050154;28;20045;-96
2023/09/10 08:26:22;;;;;;;8.98;4.75;;;;;;;24.94;50.61;98871.06;5047777;28;20075;-96
2023/09/10 08:28:49;;;;;;;6.05;4.78;;;;;;;25.03;49.43;98885.75;5049086;28;20112;-96
2023/09/10 08:31:15;;;;;;;7.00;4.93;;;;;;;24.92;49.65;98867.59;5049688;28;20045;-96
2023/09/10 08:33:42;;;;;;;7.03;4.78;;;;;;;24.87;49.56;98847.22;5049523;28;20049;-96
2023/09/10 08:36:08;;;;;;;8.90;5.57;;;;;;;24.89;49.13;98856.97;5049001;28;20060;-96
2023/09/10 08:38:35;;;;;;;6.22;5.60;;;;;;;24.91;49.67;98844.09;5050085;28;20364;-96
2023/09/10 08:41:12;;;;;;;7.50;4.50;;;;;;;25.36;48.74;98867.53;5048110;28;20049;-96
2023/09/10 08:43:46;;;;;;;7.20;4.80;;;;;;;25.45;48.18;98831.34;5048189;28;20037;-96
2023/09/10 08:46:14;;;;;;;7.60;4.55;;;;;;;26.02;47.66;98887.16;5049441;28;20084;-96
2023/09/10 08:48:44;;;;;;;7.72;4.80;;;;;;;26.01;47.19;98852.72;5046827;28;20044;-95
2023/09/10 08:51:12;;;;;;;8.15;4.43;;;;;;;26.14;47.42;98862.53;5047394;28;20056;-96
2023/09/10 08:53:43;;;;;;;8.52;5.75;;;;;;;26.06;46.69;98835.09;5046811;28;20049;-96
2023/09/10 08:56:11;;;;;;;7.18;4.72;;;;;;;25.84;47.72;98861.50;5048908;28;20499;-96
2023/09/10 08:58:38;;;;;;;9.77;5.05;;;;;;;26.03;47.69;98902.50;5045579;28;20045;-95
2023/09/10 09:01:06;;;;;;;7.00;4.35;;;;;;;26.31;47.47;98889.13;5043686;28;20056;-96
2023/09/10 09:03:34;;;;;;;9.05;4.63;;;;;;;26.19;46.27;98838.41;5045816;28;20472;-95
2023/09/10 09:06:03;;;;;;;7.43;4.75;;;;;;;26.29;46.10;98836.59;5048343;28;20052;-95
2023/09/10 09:08:30;;;;;;;6.07;4.35;;;;;;;26.61;45.93;98838.28;5048988;28;20037;-96
2023/09/10 09:10:58;;;;;;;7.60;5.70;;;;;;;26.98;45.08;98876.63;5045625;28;20041;-96
2023/09/10 09:13:27;;;;;;;6.68;5.07;;;;;;;26.91;45.08;98842.72;5047516;28;20041;-95
2023/09/10 09:15:54;;;;;;;9.55;5.07;;;;;;;27.20;44.92;98859.09;5045929;28;20083;-94
2023/09/10 09:18:24;;;;;;;7.25;4.57;;;;;;;27.49;44.49;98871.88;5069502;28;20526;-96
2023/09/10 09:20:52;;;;;;;7.40;5.22;;;;;;;27.63;43.98;98871.41;5045292;28;20053;-95
2023/09/10 09:23:22;;;;;;;7.60;4.75;;;;;;;27.61;43.85;98840.66;5044193;28;20053;-96
2023/09/10 09:25:51;;;;;;;7.68;5.03;;;;;;;27.43;43.10;98828.75;5045537;28;20042;-96
2023/09/10 09:28:18;;;;;;;8.15;5.15;;;;;;;27.71;44.04;98840.59;5045361;28;20068;-96
2023/09/10 09:30:45;;;;;;;6.50;4.72;;;;;;;27.95;42.88;98848.31;5044932;28;20053;-96
2023/09/10 09:33:10;;;;;;;6.40;4.47;;;;;;;28.16;42.82;98880.03;5044697;28;20042;-95
2023/09/10 09:35:37;;;;;;;8.55;4.90;;;;;;;28.12;42.47;98856.75;5044502;28;20049;-96
2023/09/10 09:38:09;;;;;;;8.95;4.90;;;;;;;28.36;41.73;98876.19;5045589;28;20046;-96
2023/09/10 09:40:36;;;;;;;7.55;4.68;;;;;;;28.23;42.25;98827.31;5044413;28;20047;-96
2023/09/10 09:43:02;;;;;;;7.13;4.55;;;;;;;28.65;42.09;98892.47;5043870;28;20029;-96
2023/09/10 09:45:29;;;;;;;6.75;4.75;;;;;;;28.31;41.13;98828.44;5044451;28;20045;-95
2023/09/10 09:47:55;;;;;;;6.68;4.90;;;;;;;28.62;42.40;98878.22;5044988;28;20033;-96
2023/09/10 09:50:24;;;;;;;7.53;5.05;;;;;;;28.64;41.77;98859.78;5043751;28;20052;-96
2023/09/10 09:52:51;;;;;;;7.57;4.80;;;;;;;28.66;40.92;98847.66;5043252;28;20049;-95
2023/09/10 09:55:19;;;;;;;8.38;5.25;;;;;;;28.66;41.03;98823.03;5042829;28;20041;-96
2023/09/10 09:57:46;;;;;;;10.45;5.20;;;;;;;28.06;40.78;98822.66;5043802;28;20040;-95
2023/09/10 10:00:13;;;;;;;9.65;4.80;;;;;;;28.62;40.99;98872.75;5064427;28;20041;-96
2023/09/10 10:02:39;;;;;;;8.40;5.13;;;;;;;28.69;40.35;98838.28;5041556;28;20040;-96
2023/09/10 10:05:05;;;;;;;6.63;4.80;;;;;;;28.60;39.59;98800.91;5048260;28;20041;-96
2023/09/10 10:07:36;;;;;;;7.18;4.32;;;;;;;28.78;38.92;98831.00;5038379;28;20072;-96
2023/09/10 10:10:05;;;;;;;5.95;4.15;;;;;;;28.81;38.24;98828.81;5044010;28;20049;-95
2023/09/10 10:12:33;;;;;;;6.97;4.00;;;;;;;28.70;38.90;98798.09;5041592;28;20057;-96
2023/09/10 10:15:00;;;;;;;6.13;4.10;;;;;;;28.45;39.59;98806.00;5042106;28;20060;-96
2023/09/10 10:17:26;;;;;;;7.35;4.32;;;;;;;28.77;39.55;98805.50;5041680;28;20053;-96
2023/09/10 10:19:53;;;;;;;7.43;4.10;;;;;;;28.80;38.49;98794.28;5041320;28;20057;-96
2023/09/10 10:22:22;;;;;;;6.93;4.32;;;;;;;28.94;37.81;98789.25;5043183;28;20133;-94
2023/09/10 10:24:49;;;;;;;5.90;4.32;;;;;;;28.97;38.43;98827.25;5042200;28;20048;-96
2023/09/10 10:27:17;;;;;;;5.10;3.88;;;;;;;28.87;39.28;98799.97;5046360;28;20052;-96
2023/09/10 10:29:44;;;;;;;4.72;3.75;;;;;;;28.97;38.32;98802.59;5059437;28;20037;-96
2023/09/10 10:32:18;;;;;;;6.05;5.18;;;;;;;29.10;37.82;98824.16;5044555;28;20415;-95
2023/09/10 10:34:49;;;;;;;4.80;3.97;;;;;;;29.52;38.55;98838.00;5036501;28;20050;-96
2023/09/10 10:37:22;;;;;;;10.52;4.28;;;;;;;29.05;38.01;98797.22;5035283;28;20041;-95
2023/09/10 10:39:54;;;;;;;6.97;4.15;;;;;;;29.34;38.11;98818.84;5034320;28;20095;-94
2023/09/10 10:42:29;;;;;;;7.85;3.55;;;;;;;29.43;35.45;98812.44;5035870;28;20077;-95
2023/09/10 10:45:00;;;;;;;7.03;4.40;;;;;;;29.76;34.82;98842.81;5030745;28;20461;-95
2023/09/10 10:47:29;;;;;;;5.47;3.78;;;;;;;29.92;34.31;98830.22;5039703;28;20072;-96
2023/09/10 10:49:56;;;;;;;6.03;3.63;;;;;;;29.82;33.01;98814.75;5039484;28;20042;-95
2023/09/10 10:52:28;;;;;;;5.20;3.95;;;;;;;29.65;32.45;98789.09;5039217;28;20053;-96
2023/09/10 10:54:55;;;;;;;6.30;3.85;;;;;;;29.66;33.27;98801.75;5041678;28;20052;-95
2023/09/10 10:57:24;;;;;;;5.65;3.65;;;;;;;29.88;32.12;98830.56;5038544;28;20038;-95
2023/09/10 10:59:50;;;;;;;5.05;3.50;;;;;;;29.66;31.98;98790.78;5038282;28;20056;-94
2023/09/10 11:02:23;;;;;;;6.05;3.55;;;;;;;29.88;33.38;98815.97;5038547;28;20049;-95
2023/09/10 11:04:57;;;;;;;5.65;3.45;;;;;;;29.04;33.67;98781.81;5050394;28;20056;-94
2023/09/10 11:07:23;;;;;;;4.53;3.60;;;;;;;28.90;33.72;98771.41;5040650;28;20056;-95
2023/09/10 11:09:49;;;;;;;4.53;3.60;;;;;;;29.19;35.27;98823.19;5041320;28;20549;-96
2023/09/10 11:12:16;;;;;;;7.68;3.75;;;;;;;29.21;36.02;98780.94;5039948;28;20037;-96
2023/09/10 11:15:07;;;;;;;5.75;4.07;;;;;;;29.60;34.89;98820.75;5038941;28;20037;-95
2023/09/10 11:17:35;;;;;;;6.95;3.85;;;;;;;29.56;36.02;98765.41;5039891;28;20083;-95
2023/09/10 11:20:04;;;;;;;5.72;5.10;;;;;;;30.08;34.43;98817.44;5039804;28;20376;-96
2023/09/10 11:23:02;;;;;;;4.75;3.47;;;;;;;29.99;33.52;98812.91;5040788;28;20128;-96
2023/09/10 11:25:28;;;;;;;6.20;4.70;;;;;;;29.94;34.94;98796.13;5041468;28;20045;-94
2023/09/10 11:27:54;;;;;;;5.80;3.47;;;;;;;30.02;33.30;98776.97;5041851;28;20108;-95
2023/09/10 11:30:21;;;;;;;6.70;3.92;;;;;;;30.22;32.76;98809.59;5042525;28;20046;-94
2023/09/10 11:32:50;;;;;;;5.30;3.78;;;;;;;30.30;32.40;98810.50;5041465;28;20503;-95
2023/09/10 11:35:24;;;;;;;5.22;3.47;;;;;;;30.16;31.64;98782.84;5043285;28;20096;-95